createdAt,value
2023-03-13T00:01:38.182Z,100238.13
2023-03-13T00:04:04.760Z,100231.19
2023-03-13T00:06:34.718Z,100236.75
2023-03-13T00:09:02.325Z,100224.22
2023-03-13T00:11:29.501Z,100222.28
2023-03-13T00:13:57.826Z,100213.69
2023-03-13T00:16:24.518Z,100212.00
2023-03-13T00:18:53.456Z,100210.06
2023-03-13T00:21:22.376Z,100209.50
2023-03-13T00:23:49.469Z,100212.56
2023-03-13T00:26:18.731Z,100203.09
2023-03-13T00:28:46.120Z,100201.72
2023-03-13T00:31:15.123Z,100203.69
2023-03-13T00:33:43.956Z,100198.13
2023-03-13T00:36:13.188Z,100196.16
2023-03-13T00:38:40.179Z,100202.88
2023-03-13T00:41:15.397Z,100204.25
2023-03-13T00:43:43.414Z,100195.34
2023-03-13T00:46:13.229Z,100187.56
2023-03-13T00:48:39.800Z,100190.06
2023-03-13T00:51:07.628Z,100182.53
2023-03-13T00:53:34.169Z,100174.47
2023-03-13T00:56:09.125Z,100169.47
2023-03-13T00:58:37.553Z,100166.41
2023-03-13T01:01:16.418Z,100159.97
2023-03-13T01:03:44.794Z,100158.59
2023-03-13T01:06:14.439Z,100155.53
2023-03-13T01:08:41.204Z,100150.25
2023-03-13T01:11:13.039Z,100154.16
2023-03-13T01:13:39.921Z,100158.06
2023-03-13T01:16:12.428Z,100161.38
2023-03-13T01:18:41.135Z,100156.94
2023-03-13T01:21:09.261Z,100159.97
2023-03-13T01:23:35.725Z,100165.00
2023-03-13T01:26:05.400Z,100158.88
2023-03-13T01:28:32.518Z,100156.09
2023-03-13T01:30:59.600Z,100156.94
2023-03-13T01:33:26.662Z,100161.69
2023-03-13T01:35:53.216Z,100161.09
2023-03-13T01:38:19.806Z,100161.09
2023-03-13T01:40:48.397Z,100159.16
2023-03-13T01:43:27.452Z,100144.66
2023-03-13T01:46:04.596Z,100145.50
2023-03-13T01:48:52.615Z,100129.34
2023-03-13T01:51:38.127Z,100127.66
2023-03-13T01:54:07.677Z,100113.97
2023-03-13T01:56:48.060Z,100113.44
2023-03-13T01:59:21.269Z,100112.88
2023-03-13T02:01:50.997Z,100107.59
2023-03-13T02:04:20.684Z,100113.72
2023-03-13T02:06:49.480Z,100113.72
2023-03-13T02:09:20.865Z,100112.06
2023-03-13T02:11:57.593Z,100108.13
2023-03-13T02:14:27.957Z,100095.31
2023-03-13T02:17:21.520Z,100099.53
2023-03-13T02:19:54.273Z,100093.31
2023-03-13T02:22:38.972Z,100092.50
2023-03-13T02:25:33.688Z,100089.13
2023-03-13T02:28:03.421Z,100084.13
2023-03-13T02:30:33.450Z,100075.44
2023-03-13T02:33:00.987Z,100074.91
2023-03-13T02:35:28.233Z,100073.78
2023-03-13T02:37:59.755Z,100068.47
2023-03-13T02:40:30.165Z,100065.97
2023-03-13T02:43:00.417Z,100066.22
2023-03-13T02:45:27.901Z,100058.72
2023-03-13T02:47:54.320Z,100057.59
2023-03-13T02:50:21.186Z,100051.19
2023-03-13T02:52:53.634Z,100045.34
2023-03-13T02:55:28.456Z,100039.19
2023-03-13T02:57:55.323Z,100035.53
2023-03-13T03:00:26.532Z,100024.91
2023-03-13T03:02:54.944Z,100027.16
2023-03-13T03:05:22.242Z,100015.66
2023-03-13T03:07:50.243Z,100019.28
2023-03-13T03:10:18.235Z,100018.72
2023-03-13T03:12:45.256Z,100019.25
2023-03-13T03:15:12.278Z,100018.69
2023-03-13T03:17:43.193Z,100011.72
2023-03-13T03:20:12.108Z,100017.59
2023-03-13T03:22:41.677Z,100008.91
2023-03-13T03:25:09.273Z,100004.44
2023-03-13T03:27:36.430Z,100008.09
2023-03-13T03:30:06.344Z,100008.91
2023-03-13T03:32:34.635Z,99999.41
2023-03-13T03:35:01.102Z,100001.13
2023-03-13T03:37:27.706Z,100005.28
2023-03-13T03:39:54.430Z,99992.16
2023-03-13T03:42:20.886Z,99980.44
2023-03-13T03:44:47.329Z,99978.75
2023-03-13T03:47:14.651Z,99966.50
2023-03-13T03:49:44.772Z,99971.25
2023-03-13T03:52:12.737Z,99969.78
2023-03-13T03:54:41.742Z,99973.41
2023-03-13T03:57:08.201Z,99961.22
2023-03-13T03:59:36.260Z,99958.63
2023-03-13T04:02:05.910Z,99956.88
2023-03-13T04:04:33.320Z,99951.66
2023-03-13T04:07:04.503Z,99952.44
2023-03-13T04:09:32.581Z,99944.66
2023-03-13T04:12:00.872Z,99932.59
2023-03-13T04:14:27.875Z,99927.00
2023-03-13T04:16:54.855Z,99928.69
2023-03-13T04:19:21.377Z,99919.16
2023-03-13T04:21:47.873Z,99918.97
2023-03-13T04:24:17.380Z,99912.25
2023-03-13T04:26:44.783Z,99913.13
2023-03-13T04:29:11.473Z,99909.47
2023-03-13T04:31:56.615Z,99903.66
2023-03-13T04:34:33.113Z,99893.91
2023-03-13T04:37:14.106Z,99896.97
2023-03-13T04:40:02.151Z,99896.47
2023-03-13T04:42:50.054Z,99885.50
2023-03-13T04:45:38.129Z,99886.09
2023-03-13T04:48:28.738Z,99876.34
2023-03-13T04:51:02.653Z,99870.22
2023-03-13T04:53:47.316Z,99868.50
2023-03-13T04:56:43.201Z,99860.78
2023-03-13T04:59:29.472Z,99856.88
2023-03-13T05:02:31.269Z,99848.84
2023-03-13T05:05:15.934Z,99843.53
2023-03-13T05:07:58.097Z,99833.25
2023-03-13T05:10:46.977Z,99823.47
2023-03-13T05:13:28.949Z,99829.09
2023-03-13T05:16:01.453Z,99825.16
2023-03-13T05:18:37.325Z,99826.91
2023-03-13T05:21:08.724Z,99823.28
2023-03-13T05:23:53.912Z,99823.47
2023-03-13T05:26:38.520Z,99814.34
2023-03-13T05:29:18.871Z,99806.78
2023-03-13T05:32:08.944Z,99802.53
2023-03-13T05:34:53.899Z,99789.78
2023-03-13T05:37:43.442Z,99780.06
2023-03-13T05:40:30.164Z,99772.47
2023-03-13T05:43:29.960Z,99768.84
2023-03-13T05:46:14.772Z,99764.69
2023-03-13T05:48:53.015Z,99754.91
2023-03-13T05:51:35.520Z,99743.75
2023-03-13T05:54:15.782Z,99752.78
2023-03-13T05:57:00.727Z,99746.59
2023-03-13T05:59:39.752Z,99735.41
2023-03-13T06:02:23.620Z,99733.25
2023-03-13T06:04:50.770Z,99732.13
2023-03-13T06:07:17.656Z,99730.38
2023-03-13T06:09:44.085Z,99731.00
2023-03-13T06:12:11.506Z,99721.50
2023-03-13T06:14:38.424Z,99713.59
2023-03-13T06:17:30.671Z,99712.25
2023-03-13T06:19:57.056Z,99703.66
2023-03-13T06:22:23.464Z,99696.38
2023-03-13T06:24:49.879Z,99693.59
2023-03-13T06:27:17.016Z,99687.47
2023-03-13T06:29:43.695Z,99674.34
2023-03-13T06:32:10.232Z,99668.56
2023-03-13T06:34:37.455Z,99665.28
2023-03-13T06:37:04.033Z,99658.06
2023-03-13T06:39:30.481Z,99648.78
2023-03-13T06:41:56.880Z,99642.94
2023-03-13T06:44:23.316Z,99638.50
2023-03-13T06:46:49.725Z,99629.66
2023-03-13T06:49:16.123Z,99624.38
2023-03-13T06:51:42.512Z,99630.41
2023-03-13T06:54:08.900Z,99614.50
2023-03-13T06:56:35.321Z,99611.78
2023-03-13T06:59:01.726Z,99614.50
2023-03-13T07:01:28.266Z,99634.94
2023-03-13T07:03:54.880Z,99642.16
2023-03-13T07:06:21.293Z,99625.38
2023-03-13T07:08:47.731Z,99621.66
2023-03-13T07:11:14.663Z,99613.03
2023-03-13T07:13:41.512Z,99607.28
2023-03-13T07:16:10.470Z,99601.34
2023-03-13T07:18:39.275Z,99595.25
2023-03-13T07:21:05.796Z,99606.63
2023-03-13T07:23:34.187Z,99601.19
2023-03-13T07:26:04.206Z,99590.50
2023-03-13T07:28:31.591Z,99595.16
2023-03-13T07:31:05.915Z,99599.84
2023-03-13T07:33:32.775Z,99586.50
2023-03-13T07:35:59.199Z,99592.84
2023-03-13T07:38:25.678Z,99585.28
2023-03-13T07:40:54.498Z,99576.47
2023-03-13T07:43:21.904Z,99569.47
2023-03-13T07:45:57.161Z,99567.75
2023-03-13T07:48:25.600Z,99572.72
2023-03-13T07:50:52.036Z,99560.19
2023-03-13T07:53:21.690Z,99557.94
2023-03-13T07:56:03.466Z,99549.72
2023-03-13T07:58:34.959Z,99552.16
2023-03-13T08:01:01.380Z,99546.78
2023-03-13T08:03:28.746Z,99548.44
2023-03-13T08:06:09.653Z,99541.34
2023-03-13T08:08:36.765Z,99545.41
2023-03-13T08:11:09.049Z,99535.06
2023-03-13T08:13:36.127Z,99535.88
2023-03-13T08:16:14.872Z,99525.38
2023-03-13T08:18:43.818Z,99521.03
2023-03-13T08:21:15.996Z,99520.25
2023-03-13T08:23:42.766Z,99514.50
2023-03-13T08:26:14.612Z,99510.53
2023-03-13T08:28:42.155Z,99495.63
2023-03-13T08:31:17.470Z,99494.72
2023-03-13T08:33:45.156Z,99498.25
2023-03-13T08:36:18.813Z,99492.56
2023-03-13T08:38:46.786Z,99497.31
2023-03-13T08:41:18.667Z,99493.59
2023-03-13T08:43:46.209Z,99500.84
2023-03-13T08:46:13.517Z,99491.84
2023-03-13T08:48:40.296Z,99486.47
2023-03-13T08:51:12.077Z,99474.78
2023-03-13T08:53:39.623Z,99474.78
2023-03-13T08:56:06.843Z,99473.31
2023-03-13T08:58:33.339Z,99465.91
2023-03-13T09:01:04.587Z,99456.69
2023-03-13T09:03:31.533Z,99454.63
2023-03-13T09:05:59.033Z,99456.56
2023-03-13T09:08:26.185Z,99448.06
2023-03-13T09:10:57.571Z,99453.97
2023-03-13T09:13:24.965Z,99460.41
2023-03-13T09:15:58.922Z,99453.88
2023-03-13T09:18:25.514Z,99466.19
2023-03-13T09:20:52.699Z,99464.91
2023-03-13T09:23:19.978Z,99460.91
2023-03-13T09:25:46.563Z,99458.00
2023-03-13T09:28:13.142Z,99463.69
2023-03-13T09:30:39.554Z,99454.97
2023-03-13T09:33:05.996Z,99449.91
2023-03-13T09:35:32.497Z,99445.47
2023-03-13T09:37:58.977Z,99435.00
2023-03-13T09:40:27.896Z,99434.91
2023-03-13T09:43:00.117Z,99437.28
2023-03-13T09:45:41.889Z,99421.34
2023-03-13T09:48:18.379Z,99414.59
2023-03-13T09:50:56.560Z,99423.06
2023-03-13T09:53:55.188Z,99415.50
2023-03-13T09:56:26.486Z,99427.06
2023-03-13T09:59:02.191Z,99434.56
2023-03-13T10:01:31.256Z,99429.47
2023-03-13T10:04:30.808Z,99415.69
2023-03-13T10:06:57.461Z,99423.56
2023-03-13T10:09:31.182Z,99421.09
2023-03-13T10:12:12.668Z,99423.97
2023-03-13T10:15:02.353Z,99419.59
2023-03-13T10:17:37.341Z,99413.78
2023-03-13T10:20:23.845Z,99407.75
2023-03-13T10:22:55.954Z,99405.19
2023-03-13T10:25:29.794Z,99409.38
2023-03-13T10:27:56.416Z,99404.44
2023-03-13T10:30:29.118Z,99400.56
2023-03-13T10:33:08.111Z,99399.28
2023-03-13T10:35:38.550Z,99396.47
2023-03-13T10:38:18.694Z,99387.69
2023-03-13T10:40:57.855Z,99383.22
2023-03-13T10:43:25.983Z,99380.97
2023-03-13T10:45:53.097Z,99377.69
2023-03-13T10:48:20.487Z,99380.34
2023-03-13T10:50:49.478Z,99385.81
2023-03-13T10:53:31.026Z,99369.91
2023-03-13T10:56:15.432Z,99368.06
2023-03-13T10:58:47.420Z,99370.06
2023-03-13T11:01:17.110Z,99370.75
2023-03-13T11:03:44.987Z,99366.84
2023-03-13T11:06:28.078Z,99354.50
2023-03-13T11:09:15.111Z,99352.19
2023-03-13T11:11:47.398Z,99351.38
2023-03-13T11:14:25.938Z,99339.00
2023-03-13T11:16:58.251Z,99354.31
2023-03-13T11:19:53.878Z,99352.81
2023-03-13T11:22:30.377Z,99331.53
2023-03-13T11:25:08.710Z,99344.91
2023-03-13T11:27:44.052Z,99331.00
2023-03-13T11:30:19.788Z,99333.00
2023-03-13T11:33:00.381Z,99333.59
2023-03-13T11:35:57.932Z,99327.81
2023-03-13T11:38:38.913Z,99333.25
2023-03-13T11:41:41.876Z,99327.44
2023-03-13T11:44:20.085Z,99326.63
2023-03-13T11:46:59.716Z,99333.69
2023-03-13T11:49:40.841Z,99336.31
2023-03-13T11:52:19.474Z,99318.47
2023-03-13T11:55:23.372Z,99320.97
2023-03-13T11:58:37.372Z,99324.72
2023-03-13T12:01:11.413Z,99313.75
2023-03-13T12:03:55.810Z,99320.88
2023-03-13T12:06:32.756Z,99325.09
2023-03-13T12:09:12.005Z,99314.75
2023-03-13T12:11:48.250Z,99315.72
2023-03-13T12:14:26.090Z,99314.16
2023-03-13T12:16:59.123Z,99327.19
2023-03-13T12:19:35.006Z,99318.34
2023-03-13T12:22:14.141Z,99310.97
2023-03-13T12:24:49.990Z,99320.41
2023-03-13T12:27:33.432Z,99297.16
2023-03-13T12:30:14.808Z,99292.13
2023-03-13T12:33:03.322Z,99292.38
2023-03-13T12:35:34.855Z,99286.69
2023-03-13T12:38:17.515Z,99288.16
2023-03-13T12:41:17.245Z,99290.28
2023-03-13T12:44:00.665Z,99276.84
2023-03-13T12:46:41.053Z,99283.44
2023-03-13T12:49:31.316Z,99272.91
2023-03-13T12:52:12.846Z,99271.47
2023-03-13T12:54:54.308Z,99267.72
2023-03-13T12:57:56.038Z,99263.84
2023-03-13T13:00:26.766Z,99262.44
2023-03-13T13:03:37.810Z,99267.59
2023-03-13T13:06:16.039Z,99259.47
2023-03-13T13:08:47.041Z,99259.25
2023-03-13T13:11:45.119Z,99259.47
2023-03-13T13:14:11.446Z,99254.66
2023-03-13T13:16:43.668Z,99256.00
2023-03-13T13:19:24.939Z,99240.94
2023-03-13T13:22:28.916Z,99238.88
2023-03-13T13:25:01.447Z,99233.44
2023-03-13T13:27:45.795Z,99236.56
2023-03-13T13:30:18.473Z,99236.41
2023-03-13T13:32:52.665Z,99229.13
2023-03-13T13:35:26.470Z,99238.16
2023-03-13T13:37:53.957Z,99234.78
2023-03-13T13:40:26.645Z,99225.75
2023-03-13T13:42:58.545Z,99223.09
2023-03-13T13:45:28.371Z,99219.28
2023-03-13T13:48:30.155Z,99222.84
2023-03-13T13:51:09.694Z,99226.13
2023-03-13T13:53:54.178Z,99225.56
2023-03-13T13:56:38.062Z,99222.56
2023-03-13T13:59:23.990Z,99224.94
2023-03-13T14:02:15.981Z,99222.75
2023-03-13T14:04:55.055Z,99209.91
2023-03-13T14:07:37.267Z,99216.19
2023-03-13T14:10:30.254Z,99214.81
2023-03-13T14:12:59.483Z,99207.53
2023-03-13T14:15:27.031Z,99207.34
2023-03-13T14:17:56.073Z,99210.16
2023-03-13T14:20:31.787Z,99204.00
2023-03-13T14:23:06.894Z,99213.66
2023-03-13T14:25:48.862Z,99202.16
2023-03-13T14:28:24.024Z,99204.94
2023-03-13T14:30:53.163Z,99204.38
2023-03-13T14:33:19.987Z,99193.44
2023-03-13T14:35:47.609Z,99198.78
2023-03-13T14:38:22.297Z,99199.06
2023-03-13T14:40:51.139Z,99201.69
2023-03-13T14:43:40.936Z,99187.78
2023-03-13T14:46:30.469Z,99188.31
2023-03-13T14:48:57.144Z,99188.31
2023-03-13T14:51:26.494Z,99184.50
2023-03-13T14:53:55.433Z,99184.06
2023-03-13T14:56:42.164Z,99183.34
2023-03-13T14:59:23.281Z,99163.75
2023-03-13T15:02:00.602Z,99176.28
2023-03-13T15:04:50.305Z,99166.81
2023-03-13T15:07:17.247Z,99164.22
2023-03-13T15:09:45.278Z,99163.69
2023-03-13T15:12:18.157Z,99163.50
2023-03-13T15:14:49.487Z,99161.22
2023-03-13T15:17:17.493Z,99161.94
2023-03-13T15:19:49.103Z,99147.81
2023-03-13T15:22:16.460Z,99151.16
2023-03-13T15:24:46.774Z,99139.06
2023-03-13T15:27:22.981Z,99140.53
2023-03-13T15:29:49.404Z,99139.25
2023-03-13T15:32:21.492Z,99141.34
2023-03-13T15:34:47.879Z,99139.72
2023-03-13T15:37:14.431Z,99132.81
2023-03-13T15:39:41.528Z,99130.31
2023-03-13T15:42:08.033Z,99130.16
2023-03-13T15:44:35.073Z,99128.41
2023-03-13T15:47:01.511Z,99122.03
2023-03-13T15:49:27.943Z,99108.91
2023-03-13T15:51:55.801Z,99118.59
2023-03-13T15:54:24.507Z,99111.28
2023-03-13T15:56:52.758Z,99101.53
2023-03-13T15:59:19.147Z,99103.28
2023-03-13T16:01:45.562Z,99106.75
2023-03-13T16:04:13.363Z,99108.66
2023-03-13T16:06:39.847Z,99106.00
2023-03-13T16:09:06.866Z,99093.25
2023-03-13T16:11:34.097Z,99087.44
2023-03-13T16:14:00.501Z,99082.44
2023-03-13T16:16:29.542Z,99070.69
2023-03-13T16:18:57.982Z,99063.22
2023-03-13T16:21:33.238Z,99066.13
2023-03-13T16:24:00.739Z,99056.38
2023-03-13T16:26:30.428Z,99059.13
2023-03-13T16:28:57.717Z,99055.13
2023-03-13T16:31:30.448Z,99046.56
2023-03-13T16:33:57.987Z,99043.03
2023-03-13T16:36:31.082Z,99052.94
2023-03-13T16:39:02.777Z,99041.56
2023-03-13T16:41:29.529Z,99035.75
2023-03-13T16:43:56.546Z,99028.56
2023-03-13T16:46:27.163Z,99027.13
2023-03-13T16:48:53.621Z,99033.03
2023-03-13T16:51:22.883Z,99029.75
2023-03-13T16:53:51.171Z,99025.56
2023-03-13T16:56:39.448Z,99014.75
2023-03-13T16:59:10.809Z,99014.38
2023-03-13T17:01:37.741Z,99022.56
2023-03-13T17:04:04.518Z,99007.63
2023-03-13T17:06:36.877Z,99015.34
2023-03-13T17:09:04.766Z,99019.66
2023-03-13T17:11:31.215Z,99003.47
2023-03-13T17:13:58.461Z,99002.44
2023-03-13T17:16:32.045Z,98996.34
2023-03-13T17:18:59.065Z,99006.44
2023-03-13T17:21:28.883Z,99016.63
2023-03-13T17:23:56.014Z,99014.06
2023-03-13T17:26:36.508Z,99021.16
2023-03-13T17:29:04.356Z,99023.88
2023-03-13T17:31:37.006Z,99023.38
2023-03-13T17:34:04.757Z,99028.34
2023-03-13T17:36:31.273Z,99030.44
2023-03-13T17:39:00.446Z,99029.28
2023-03-13T17:41:29.681Z,99015.31
2023-03-13T17:43:56.458Z,99029.53
2023-03-13T17:46:25.623Z,99021.00
2023-03-13T17:48:53.696Z,99011.94
2023-03-13T17:51:25.213Z,99016.47
2023-03-13T17:53:52.708Z,99018.44
2023-03-13T17:56:24.569Z,99013.69
2023-03-13T17:58:54.335Z,99013.06
2023-03-13T18:01:36.732Z,99002.72
2023-03-13T18:04:21.731Z,99000.78
2023-03-13T18:06:50.414Z,99026.50
2023-03-13T18:09:19.673Z,99013.44
2023-03-13T18:11:46.888Z,99005.69
2023-03-13T18:14:13.441Z,99001.34
2023-03-13T18:16:48.425Z,99003.78
2023-03-13T18:19:22.758Z,99005.16
2023-03-13T18:21:52.084Z,99002.50
2023-03-13T18:24:19.155Z,99001.22
2023-03-13T18:26:47.753Z,98994.91
2023-03-13T18:29:15.771Z,99005.44
2023-03-13T18:31:43.681Z,99004.97
2023-03-13T18:34:11.506Z,98993.63
2023-03-13T18:36:38.608Z,98986.72
2023-03-13T18:39:06.253Z,98990.16
2023-03-13T18:41:33.510Z,98979.63
2023-03-13T18:44:01.593Z,98975.06
2023-03-13T18:46:31.546Z,98969.69
2023-03-13T18:48:58.821Z,98966.22
2023-03-13T18:51:25.870Z,98983.41
2023-03-13T18:53:53.668Z,98991.78
2023-03-13T18:56:28.897Z,98980.34
2023-03-13T18:58:55.771Z,98980.25
2023-03-13T19:01:25.619Z,98979.06
2023-03-13T19:03:52.278Z,98971.69
2023-03-13T19:06:27.769Z,98966.88
2023-03-13T19:08:57.036Z,98937.72
2023-03-13T19:11:26.144Z,98926.56
2023-03-13T19:13:53.238Z,98930.78
2023-03-13T19:16:27.276Z,98930.72
2023-03-13T19:18:53.933Z,98941.06
2023-03-13T19:21:25.567Z,98947.81
2023-03-13T19:23:52.757Z,98940.19
2023-03-13T19:26:36.327Z,98940.91
2023-03-13T19:29:04.097Z,98946.34
2023-03-13T19:31:30.533Z,98936.00
2023-03-13T19:33:56.969Z,98937.38
2023-03-13T19:36:24.660Z,98946.72
2023-03-13T19:38:51.084Z,98935.91
2023-03-13T19:41:17.538Z,98930.53
2023-03-13T19:43:43.986Z,98926.00
2023-03-13T19:46:20.734Z,98932.91
2023-03-13T19:48:47.507Z,98927.88
2023-03-13T19:51:15.010Z,98920.00
2023-03-13T19:53:41.481Z,98922.34
2023-03-13T19:56:21.336Z,98931.13
2023-03-13T19:58:49.885Z,98932.78
2023-03-13T20:01:18.012Z,98935.97
2023-03-13T20:03:46.291Z,98936.31
2023-03-13T20:06:19.005Z,98923.13
2023-03-13T20:08:46.650Z,98910.31
2023-03-13T20:11:14.621Z,98921.84
2023-03-13T20:13:41.538Z,98918.28
2023-03-13T20:16:10.739Z,98900.81
2023-03-13T20:18:43.196Z,98904.19
2023-03-13T20:21:10.300Z,98894.47
2023-03-13T20:23:36.751Z,98899.88
2023-03-13T20:26:08.320Z,98896.81
2023-03-13T20:28:35.697Z,98896.34
2023-03-13T20:31:02.418Z,98882.19
2023-03-13T20:33:28.894Z,98884.06
2023-03-13T20:36:07.504Z,98887.59
2023-03-13T20:38:34.821Z,98887.59
2023-03-13T20:41:01.916Z,98886.06
2023-03-13T20:43:29.018Z,98885.75
2023-03-13T20:45:55.828Z,98882.13
2023-03-13T20:48:22.564Z,98885.66
2023-03-13T20:50:53.216Z,98890.47
2023-03-13T20:53:21.113Z,98913.31
2023-03-13T20:55:48.347Z,98911.00
2023-03-13T20:58:15.880Z,98906.66
2023-03-13T21:00:43.660Z,98904.69
2023-03-13T21:03:10.105Z,98909.34
2023-03-13T21:05:40.312Z,98915.22
2023-03-13T21:08:07.201Z,98914.19
2023-03-13T21:10:38.276Z,98902.56
2023-03-13T21:13:05.118Z,98903.06
2023-03-13T21:15:32.076Z,98896.84
2023-03-13T21:17:58.658Z,98904.56
2023-03-13T21:20:25.490Z,98900.63
2023-03-13T21:22:52.436Z,98897.09
2023-03-13T21:25:19.638Z,98907.06
2023-03-13T21:27:46.036Z,98907.16
2023-03-13T21:30:15.174Z,98906.72
2023-03-13T21:32:41.773Z,98914.59
2023-03-13T21:35:09.182Z,98918.19
2023-03-13T21:37:36.464Z,98925.94
2023-03-13T21:40:04.496Z,98910.81
2023-03-13T21:42:30.895Z,98906.25
2023-03-13T21:44:57.289Z,98899.34
2023-03-13T21:47:26.558Z,98897.00
2023-03-13T21:49:54.720Z,98891.63
2023-03-13T21:52:22.268Z,98887.31
2023-03-13T21:54:49.081Z,98879.22
2023-03-13T21:57:15.787Z,98869.13
2023-03-13T21:59:42.624Z,98867.50
2023-03-13T22:02:13.373Z,98872.75
2023-03-13T22:04:40.039Z,98869.50
2023-03-13T22:07:06.496Z,98875.22
2023-03-13T22:09:33.256Z,98876.16
2023-03-13T22:11:59.628Z,98884.13
2023-03-13T22:14:27.929Z,98876.16
2023-03-13T22:16:54.719Z,98865.41
2023-03-13T22:19:21.135Z,98870.06
2023-03-13T22:21:47.547Z,98861.25
2023-03-13T22:24:13.944Z,98864.91
2023-03-13T22:26:40.335Z,98867.25
2023-03-13T22:29:06.749Z,98863.25
2023-03-13T22:31:33.169Z,98860.44
2023-03-13T22:33:59.568Z,98859.16
2023-03-13T22:36:25.998Z,98872.63
2023-03-13T22:38:52.442Z,98865.59
2023-03-13T22:41:19.410Z,98858.59
2023-03-13T22:43:45.882Z,98862.44
2023-03-13T22:46:12.321Z,98863.50
2023-03-13T22:48:39.655Z,98865.13
2023-03-13T22:51:11.559Z,98852.63
2023-03-13T22:53:40.436Z,98843.81
2023-03-13T22:56:09.932Z,98854.81
2023-03-13T22:58:37.343Z,98855.28
2023-03-13T23:01:09.616Z,98854.00
2023-03-13T23:03:36.231Z,98841.47
2023-03-13T23:06:07.532Z,98844.63
2023-03-13T23:08:34.875Z,98854.47
2023-03-13T23:11:03.306Z,98843.63
2023-03-13T23:13:30.296Z,98849.09
2023-03-13T23:15:56.981Z,98838.31
2023-03-13T23:18:27.599Z,98833.38
2023-03-13T23:20:54.768Z,98838.91
2023-03-13T23:23:21.532Z,98821.47
2023-03-13T23:25:47.923Z,98822.28
2023-03-13T23:28:14.340Z,98808.47
2023-03-13T23:30:40.831Z,98812.31
2023-03-13T23:33:07.221Z,98823.81
2023-03-13T23:35:36.677Z,98817.84
2023-03-13T23:38:03.108Z,98813.75
2023-03-13T23:40:29.525Z,98800.50
2023-03-13T23:42:55.904Z,98811.75
2023-03-13T23:45:22.333Z,98815.19
2023-03-13T23:47:48.787Z,98809.47
2023-03-13T23:50:15.877Z,98808.84
2023-03-13T23:52:42.500Z,98809.34
2023-03-13T23:55:09.813Z,98822.22
2023-03-13T23:57:37.612Z,98828.19
